createdAt,value
2017-11-10T00:00:11.677Z,1018.73
2017-11-10T00:01:12.537Z,1018.76
2017-11-10T00:02:11.889Z,1018.79
2017-11-10T00:03:10.458Z,1018.83
2017-11-10T00:04:12.620Z,1018.83
2017-11-10T00:05:10.754Z,1018.80
2017-11-10T00:06:11.354Z,1018.74
2017-11-10T00:07:21.674Z,1018.74
2017-11-10T00:08:10.855Z,1018.69
2017-11-10T00:09:09.918Z,1018.62
2017-11-10T00:10:10.025Z,1018.60
2017-11-10T00:11:14.694Z,1018.54
2017-11-10T00:12:11.210Z,1018.62
2017-11-10T00:13:12.085Z,1018.61
2017-11-10T00:14:10.990Z,1018.61
2017-11-10T00:15:10.858Z,1018.61
2017-11-10T00:16:11.114Z,1018.66
2017-11-10T00:17:11.752Z,1018.70
2017-11-10T00:18:13.865Z,1018.70
2017-11-10T00:19:11.609Z,1018.70
2017-11-10T00:20:16.346Z,1018.70
2017-11-10T00:21:11.798Z,1018.76
2017-11-10T00:22:12.009Z,1018.79
2017-11-10T00:23:11.715Z,1018.79
2017-11-10T00:24:11.670Z,1018.77
2017-11-10T00:25:11.591Z,1018.69
2017-11-10T00:26:11.202Z,1018.68
2017-11-10T00:27:10.671Z,1018.62
2017-11-10T00:28:11.510Z,1018.56
2017-11-10T00:29:11.590Z,1018.53
2017-11-10T00:30:10.735Z,1018.49
2017-11-10T00:31:10.879Z,1018.43
2017-11-10T00:32:10.170Z,1018.44
2017-11-10T00:33:11.956Z,1018.44
2017-11-10T00:34:12.053Z,1018.47
2017-11-10T00:35:11.486Z,1018.49
2017-11-10T00:36:10.941Z,1018.56
2017-11-10T00:37:12.186Z,1018.65
2017-11-10T00:38:11.611Z,1018.67
2017-11-10T00:39:11.073Z,1018.68
2017-11-10T00:40:11.583Z,1018.64
2017-11-10T00:41:10.950Z,1018.57
2017-11-10T00:42:12.058Z,1018.56
2017-11-10T00:43:12.023Z,1018.57
2017-11-10T00:44:11.328Z,1018.57
2017-11-10T00:45:11.532Z,1018.60
2017-11-10T00:46:11.672Z,1018.58
2017-11-10T00:47:11.614Z,1018.56
2017-11-10T00:48:11.436Z,1018.56
2017-11-10T00:49:11.387Z,1018.54
2017-11-10T00:50:12.592Z,1018.56
2017-11-10T00:51:11.282Z,1018.51
2017-11-10T00:52:11.192Z,1018.45
2017-11-10T00:53:11.817Z,1018.48
2017-11-10T00:54:11.291Z,1018.45
2017-11-10T00:55:10.918Z,1018.39
2017-11-10T00:56:11.800Z,1018.38
2017-11-10T00:57:11.257Z,1018.37
2017-11-10T00:58:11.113Z,1018.38
2017-11-10T00:59:11.174Z,1018.38
2017-11-10T01:00:10.881Z,1018.38
2017-11-10T01:01:10.303Z,1018.37
2017-11-10T01:02:11.219Z,1018.35
2017-11-10T01:03:16.099Z,1018.29
2017-11-10T01:04:11.166Z,1018.20
2017-11-10T01:05:11.390Z,1018.16
2017-11-10T01:06:11.259Z,1018.15
2017-11-10T01:07:10.490Z,1018.13
2017-11-10T01:08:11.256Z,1018.13
2017-11-10T01:09:11.381Z,1018.13
2017-11-10T01:10:11.926Z,1018.08
2017-11-10T01:11:11.748Z,1018.10
2017-11-10T01:12:10.918Z,1018.10
2017-11-10T01:13:11.109Z,1018.16
2017-11-10T01:14:11.668Z,1018.10
2017-11-10T01:15:16.669Z,1018.10
2017-11-10T01:16:11.248Z,1018.09
2017-11-10T01:17:11.854Z,1018.02
2017-11-10T01:18:11.827Z,1017.98
2017-11-10T01:19:11.484Z,1017.97
2017-11-10T01:20:11.632Z,1017.97
2017-11-10T01:21:11.713Z,1017.90
2017-11-10T01:22:12.092Z,1017.94
2017-11-10T01:23:10.252Z,1017.96
2017-11-10T01:24:11.488Z,1017.93
2017-11-10T01:25:10.620Z,1017.98
2017-11-10T01:26:11.146Z,1017.98
2017-11-10T01:27:10.687Z,1017.97
2017-11-10T01:28:11.446Z,1018.01
2017-11-10T01:29:11.895Z,1017.91
2017-11-10T01:30:10.558Z,1017.91
2017-11-10T01:31:11.119Z,1017.87
2017-11-10T01:32:10.896Z,1017.87
2017-11-10T01:33:10.483Z,1017.88
2017-11-10T01:34:10.481Z,1017.86
2017-11-10T01:35:11.659Z,1017.81
2017-11-10T01:36:11.039Z,1017.78
2017-11-10T01:37:10.554Z,1017.71
2017-11-10T01:38:10.845Z,1017.64
2017-11-10T01:39:10.404Z,1017.61
2017-11-10T01:40:10.968Z,1017.58
2017-11-10T01:41:12.217Z,1017.59
2017-11-10T01:42:10.804Z,1017.60
2017-11-10T01:43:11.009Z,1017.57
2017-11-10T01:44:11.340Z,1017.56
2017-11-10T01:45:10.931Z,1017.53
2017-11-10T01:46:10.861Z,1017.57
2017-11-10T01:47:10.961Z,1017.54
2017-11-10T01:48:11.130Z,1017.56
2017-11-10T01:49:11.047Z,1017.54
2017-11-10T01:50:11.133Z,1017.57
2017-11-10T01:51:10.685Z,1017.61
2017-11-10T01:52:11.038Z,1017.61
2017-11-10T01:53:10.479Z,1017.56
2017-11-10T01:54:10.480Z,1017.52
2017-11-10T01:55:10.823Z,1017.42
2017-11-10T01:56:11.963Z,1017.40
2017-11-10T01:57:11.748Z,1017.37
2017-11-10T01:58:11.695Z,1017.37
2017-11-10T01:59:11.085Z,1017.37
2017-11-10T02:00:11.502Z,1017.35
2017-11-10T02:01:11.538Z,1017.39
2017-11-10T02:02:11.414Z,1017.42
2017-11-10T02:03:11.612Z,1017.36
2017-11-10T02:04:11.163Z,1017.33
2017-11-10T02:05:11.339Z,1017.38
2017-11-10T02:06:10.928Z,1017.35
2017-11-10T02:07:11.891Z,1017.40
2017-11-10T02:08:10.391Z,1017.35
2017-11-10T02:09:12.216Z,1017.33
2017-11-10T02:10:12.110Z,1017.36
2017-11-10T02:11:11.394Z,1017.32
2017-11-10T02:12:11.501Z,1017.25
2017-11-10T02:13:11.813Z,1017.33
2017-11-10T02:14:11.057Z,1017.37
2017-11-10T02:15:11.413Z,1017.32
2017-11-10T02:16:10.534Z,1017.26
2017-11-10T02:17:12.346Z,1017.27
2017-11-10T02:18:10.520Z,1017.26
2017-11-10T02:19:11.065Z,1017.28
2017-11-10T02:20:10.871Z,1017.24
2017-11-10T02:21:10.029Z,1017.23
2017-11-10T02:22:10.260Z,1017.23
2017-11-10T02:23:10.260Z,1017.18
2017-11-10T02:24:10.903Z,1017.23
2017-11-10T02:25:11.334Z,1017.23
2017-11-10T02:26:10.729Z,1017.21
2017-11-10T02:27:10.721Z,1017.20
2017-11-10T02:28:10.671Z,1017.20
2017-11-10T02:29:10.582Z,1017.22
2017-11-10T02:30:10.888Z,1017.18
2017-11-10T02:31:10.414Z,1017.17
2017-11-10T02:32:10.520Z,1017.20
2017-11-10T02:33:10.387Z,1017.12
2017-11-10T02:34:10.749Z,1017.07
2017-11-10T02:35:10.602Z,1017.10
2017-11-10T02:36:11.175Z,1017.06
2017-11-10T02:37:10.502Z,1017.03
2017-11-10T02:38:10.426Z,1017.05
2017-11-10T02:39:10.529Z,1017.02
2017-11-10T02:40:10.498Z,1017.00
2017-11-10T02:41:10.431Z,1016.97
2017-11-10T02:42:10.742Z,1016.96
2017-11-10T02:43:10.644Z,1017.01
2017-11-10T02:44:09.755Z,1016.95
2017-11-10T02:45:11.112Z,1016.97
2017-11-10T02:46:10.129Z,1016.95
2017-11-10T02:47:11.190Z,1016.94
2017-11-10T02:48:10.689Z,1016.90
2017-11-10T02:49:10.933Z,1016.88
2017-11-10T02:50:10.080Z,1016.86
2017-11-10T02:51:10.283Z,1016.83
2017-11-10T02:52:11.134Z,1016.80
2017-11-10T02:53:10.034Z,1016.76
2017-11-10T02:54:09.908Z,1016.75
2017-11-10T02:55:10.550Z,1016.67
2017-11-10T02:56:10.808Z,1016.67
2017-11-10T02:57:11.279Z,1016.70
2017-11-10T02:58:10.546Z,1016.64
2017-11-10T02:59:10.486Z,1016.57
2017-11-10T03:00:10.005Z,1016.53
2017-11-10T03:01:10.364Z,1016.49
2017-11-10T03:02:10.694Z,1016.42
2017-11-10T03:03:11.411Z,1016.34
2017-11-10T03:04:10.669Z,1016.30
2017-11-10T03:05:10.636Z,1016.32
2017-11-10T03:06:10.667Z,1016.31
2017-11-10T03:07:10.526Z,1016.32
2017-11-10T03:08:11.107Z,1016.29
2017-11-10T03:09:10.903Z,1016.31
2017-11-10T03:10:09.768Z,1016.28
2017-11-10T03:11:11.033Z,1016.24
2017-11-10T03:12:10.416Z,1016.20
2017-11-10T03:13:10.477Z,1016.15
2017-11-10T03:14:10.827Z,1016.18
2017-11-10T03:15:10.002Z,1016.17
2017-11-10T03:16:10.428Z,1016.15
2017-11-10T03:17:10.733Z,1016.09
2017-11-10T03:18:10.654Z,1016.10
2017-11-10T03:19:11.186Z,1016.13
2017-11-10T03:20:10.246Z,1016.12
2017-11-10T03:21:10.550Z,1016.14
2017-11-10T03:22:10.833Z,1016.14
2017-11-10T03:23:11.269Z,1016.11
2017-11-10T03:24:10.255Z,1016.07
2017-11-10T03:25:10.999Z,1016.06
2017-11-10T03:26:09.907Z,1016.02
2017-11-10T03:27:09.809Z,1016.01
2017-11-10T03:28:10.162Z,1016.05
2017-11-10T03:29:10.217Z,1016.01
2017-11-10T03:30:11.023Z,1015.98
2017-11-10T03:31:10.584Z,1015.99
2017-11-10T03:32:10.720Z,1015.98
2017-11-10T03:33:10.955Z,1015.99
2017-11-10T03:34:10.110Z,1015.94
2017-11-10T03:35:10.303Z,1015.96
2017-11-10T03:36:10.213Z,1015.94
2017-11-10T03:37:10.645Z,1015.96
2017-11-10T03:38:10.871Z,1015.92
2017-11-10T03:39:11.125Z,1015.96
2017-11-10T03:40:10.980Z,1015.93
2017-11-10T03:41:10.171Z,1015.88
2017-11-10T03:42:10.613Z,1015.89
2017-11-10T03:43:10.480Z,1015.90
2017-11-10T03:44:10.891Z,1015.89
2017-11-10T03:45:10.613Z,1015.87
2017-11-10T03:46:10.502Z,1015.88
2017-11-10T03:47:10.883Z,1015.89
2017-11-10T03:48:10.923Z,1015.90
2017-11-10T03:49:10.987Z,1015.85
2017-11-10T03:50:10.552Z,1015.86
2017-11-10T03:51:10.460Z,1015.92
2017-11-10T03:52:10.471Z,1015.91
2017-11-10T03:53:10.526Z,1015.87
2017-11-10T03:54:11.053Z,1015.91
2017-11-10T03:55:10.538Z,1015.92
2017-11-10T03:56:10.535Z,1015.92
2017-11-10T03:57:10.882Z,1015.88
2017-11-10T03:58:09.967Z,1015.86
2017-11-10T03:59:10.364Z,1015.77
2017-11-10T04:00:10.540Z,1015.79
2017-11-10T04:01:10.572Z,1015.80
2017-11-10T04:02:10.964Z,1015.85
2017-11-10T04:03:10.649Z,1015.76
2017-11-10T04:04:10.748Z,1015.73
2017-11-10T04:05:11.530Z,1015.76
2017-11-10T04:06:11.441Z,1015.73
2017-11-10T04:07:10.440Z,1015.66
2017-11-10T04:08:11.021Z,1015.68
2017-11-10T04:09:10.470Z,1015.68
2017-11-10T04:10:10.830Z,1015.67
2017-11-10T04:11:11.189Z,1015.68
2017-11-10T04:12:10.719Z,1015.62
2017-11-10T04:13:10.759Z,1015.58
2017-11-10T04:14:11.389Z,1015.58
2017-11-10T04:15:10.383Z,1015.52
2017-11-10T04:16:10.464Z,1015.50
2017-11-10T04:17:11.992Z,1015.52
2017-11-10T04:18:10.298Z,1015.46
2017-11-10T04:19:10.852Z,1015.46
2017-11-10T04:20:11.000Z,1015.38
2017-11-10T04:21:10.496Z,1015.43
2017-11-10T04:22:11.184Z,1015.45
2017-11-10T04:23:10.529Z,1015.48
2017-11-10T04:24:10.636Z,1015.50
2017-11-10T04:25:11.044Z,1015.55
2017-11-10T04:26:10.384Z,1015.55
2017-11-10T04:27:10.350Z,1015.60
2017-11-10T04:28:11.201Z,1015.53
2017-11-10T04:29:10.546Z,1015.56
2017-11-10T04:30:10.598Z,1015.52
2017-11-10T04:31:11.201Z,1015.54
2017-11-10T04:32:10.237Z,1015.50
2017-11-10T04:33:10.672Z,1015.54
2017-11-10T04:34:10.890Z,1015.52
2017-11-10T04:35:09.914Z,1015.56
2017-11-10T04:36:09.918Z,1015.54
2017-11-10T04:37:10.142Z,1015.52
2017-11-10T04:38:11.043Z,1015.48
2017-11-10T04:39:10.150Z,1015.48
2017-11-10T04:40:10.612Z,1015.43
2017-11-10T04:41:10.654Z,1015.36
2017-11-10T04:42:11.278Z,1015.43
2017-11-10T04:43:10.924Z,1015.39
2017-11-10T04:44:10.532Z,1015.41
2017-11-10T04:45:10.421Z,1015.45
2017-11-10T04:46:10.328Z,1015.37
2017-11-10T04:47:11.225Z,1015.35
2017-11-10T04:48:10.884Z,1015.37
2017-11-10T04:49:11.342Z,1015.38
2017-11-10T04:50:10.815Z,1015.37
2017-11-10T04:51:10.434Z,1015.31
2017-11-10T04:52:10.861Z,1015.29
2017-11-10T04:53:10.208Z,1015.27
2017-11-10T04:54:10.046Z,1015.30
2017-11-10T04:55:10.399Z,1015.31
2017-11-10T04:56:09.846Z,1015.33
2017-11-10T04:57:11.341Z,1015.33
2017-11-10T04:58:11.448Z,1015.36
2017-11-10T04:59:10.686Z,1015.35
2017-11-10T05:00:11.222Z,1015.34
2017-11-10T05:01:10.881Z,1015.33
2017-11-10T05:02:10.175Z,1015.30
2017-11-10T05:03:11.330Z,1015.25
2017-11-10T05:04:10.393Z,1015.22
2017-11-10T05:05:10.646Z,1015.19
2017-11-10T05:06:10.702Z,1015.13
2017-11-10T05:07:11.222Z,1015.10
2017-11-10T05:08:10.837Z,1015.11
2017-11-10T05:09:10.819Z,1015.11
2017-11-10T05:10:10.125Z,1015.13
2017-11-10T05:11:10.444Z,1015.20
2017-11-10T05:12:10.114Z,1015.20
2017-11-10T05:13:10.502Z,1015.17
2017-11-10T05:14:10.550Z,1015.13
2017-11-10T05:15:10.743Z,1015.12
2017-11-10T05:16:10.975Z,1015.12
2017-11-10T05:17:10.957Z,1015.09
2017-11-10T05:18:10.481Z,1015.07
2017-11-10T05:19:10.330Z,1015.07
2017-11-10T05:20:10.866Z,1015.06
2017-11-10T05:21:11.254Z,1015.06
2017-11-10T05:22:11.091Z,1015.06
2017-11-10T05:23:10.925Z,1014.99
2017-11-10T05:24:10.330Z,1014.99
2017-11-10T05:25:10.543Z,1014.98
2017-11-10T05:26:10.486Z,1015.00
2017-11-10T05:27:10.616Z,1015.01
2017-11-10T05:28:10.939Z,1015.00
2017-11-10T05:29:10.373Z,1015.04
2017-11-10T05:30:10.025Z,1015.05
2017-11-10T05:31:09.887Z,1014.92
2017-11-10T05:32:10.314Z,1014.97
2017-11-10T05:33:10.414Z,1014.96
2017-11-10T05:34:11.285Z,1014.89
2017-11-10T05:35:10.662Z,1014.90
2017-11-10T05:36:10.937Z,1014.91
2017-11-10T05:37:09.965Z,1014.89
2017-11-10T05:38:11.398Z,1014.85
2017-11-10T05:39:11.011Z,1014.85
2017-11-10T05:40:10.701Z,1014.86
2017-11-10T05:41:11.191Z,1014.84
2017-11-10T05:42:10.156Z,1014.81
2017-11-10T05:43:10.572Z,1014.82
2017-11-10T05:44:11.453Z,1014.74
2017-11-10T05:45:10.718Z,1014.78
2017-11-10T05:46:11.151Z,1014.72
2017-11-10T05:47:10.688Z,1014.73
2017-11-10T05:48:11.062Z,1014.76
2017-11-10T05:49:10.791Z,1014.78
2017-11-10T05:50:10.625Z,1014.76
2017-11-10T05:51:10.735Z,1014.72
2017-11-10T05:52:10.941Z,1014.69
2017-11-10T05:53:10.084Z,1014.66
2017-11-10T05:54:10.399Z,1014.67
2017-11-10T05:55:10.815Z,1014.66
2017-11-10T05:56:10.025Z,1014.69
2017-11-10T05:57:10.155Z,1014.63
2017-11-10T05:58:10.117Z,1014.63
2017-11-10T05:59:11.880Z,1014.60
2017-11-10T06:00:11.264Z,1014.63
2017-11-10T06:01:10.627Z,1014.64
2017-11-10T06:02:11.604Z,1014.60
2017-11-10T06:03:10.876Z,1014.62
2017-11-10T06:04:10.357Z,1014.57
2017-11-10T06:05:10.467Z,1014.55
2017-11-10T06:06:12.650Z,1014.55
2017-11-10T06:07:12.261Z,1014.49
2017-11-10T06:08:10.437Z,1014.50
2017-11-10T06:09:10.502Z,1014.42
2017-11-10T06:10:10.800Z,1014.42
2017-11-10T06:11:11.608Z,1014.43
2017-11-10T06:12:11.342Z,1014.38
2017-11-10T06:13:10.465Z,1014.36
2017-11-10T06:14:10.877Z,1014.29
2017-11-10T06:15:10.145Z,1014.31
2017-11-10T06:16:10.549Z,1014.27
2017-11-10T06:17:10.214Z,1014.28
2017-11-10T06:18:10.661Z,1014.24
2017-11-10T06:19:10.197Z,1014.27
2017-11-10T06:20:10.456Z,1014.25
2017-11-10T06:21:10.636Z,1014.34
2017-11-10T06:22:11.462Z,1014.28
2017-11-10T06:23:10.531Z,1014.28
2017-11-10T06:24:10.273Z,1014.30
2017-11-10T06:25:10.155Z,1014.28
2017-11-10T06:26:10.781Z,1014.20
2017-11-10T06:27:10.800Z,1014.21
2017-11-10T06:28:11.339Z,1014.16
2017-11-10T06:29:10.587Z,1014.18
2017-11-10T06:30:11.107Z,1014.14
2017-11-10T06:31:10.556Z,1014.12
2017-11-10T06:32:10.900Z,1014.17
2017-11-10T06:33:10.300Z,1014.16
2017-11-10T06:34:10.997Z,1014.08
2017-11-10T06:35:10.179Z,1014.05
2017-11-10T06:36:10.253Z,1014.01
2017-11-10T06:37:10.622Z,1013.97
2017-11-10T06:38:11.157Z,1013.97
2017-11-10T06:39:10.591Z,1014.00
2017-11-10T06:40:11.242Z,1013.94
2017-11-10T06:41:12.513Z,1013.89
2017-11-10T06:42:10.422Z,1013.94
2017-11-10T06:43:10.489Z,1013.90
2017-11-10T06:44:11.440Z,1013.93
2017-11-10T06:45:10.270Z,1013.87
2017-11-10T06:46:12.043Z,1013.82
2017-11-10T06:47:11.004Z,1013.82
2017-11-10T06:48:10.950Z,1013.78
2017-11-10T06:49:10.733Z,1013.70
2017-11-10T06:50:11.150Z,1013.79
2017-11-10T06:51:11.029Z,1013.79
2017-11-10T06:52:10.044Z,1013.74
2017-11-10T06:53:10.119Z,1013.77
2017-11-10T06:54:11.146Z,1013.75
2017-11-10T06:55:10.421Z,1013.76
2017-11-10T06:56:10.476Z,1013.75
2017-11-10T06:57:10.710Z,1013.67
2017-11-10T06:58:10.053Z,1013.64
2017-11-10T06:59:16.524Z,1013.71
2017-11-10T07:00:11.397Z,1013.64
2017-11-10T07:01:10.492Z,1013.67
2017-11-10T07:02:10.443Z,1013.64
2017-11-10T07:03:10.858Z,1013.65
2017-11-10T07:04:11.093Z,1013.59
2017-11-10T07:05:10.234Z,1013.51
2017-11-10T07:06:10.887Z,1013.51
2017-11-10T07:07:10.053Z,1013.43
2017-11-10T07:08:10.533Z,1013.41
2017-11-10T07:09:10.806Z,1013.36
2017-11-10T07:10:10.846Z,1013.34
2017-11-10T07:11:10.291Z,1013.36
2017-11-10T07:12:10.721Z,1013.30
2017-11-10T07:13:10.715Z,1013.28
2017-11-10T07:14:11.584Z,1013.19
2017-11-10T07:15:11.140Z,1013.19
2017-11-10T07:16:10.741Z,1013.18
2017-11-10T07:17:11.109Z,1013.18
2017-11-10T07:18:10.374Z,1013.14
2017-11-10T07:19:11.130Z,1013.14
2017-11-10T07:20:10.745Z,1013.14
2017-11-10T07:21:11.586Z,1013.16
2017-11-10T07:22:11.253Z,1013.12
2017-11-10T07:23:10.223Z,1013.16
2017-11-10T07:24:10.536Z,1013.16
2017-11-10T07:25:10.942Z,1013.12
2017-11-10T07:26:10.415Z,1013.13
2017-11-10T07:27:10.848Z,1013.08
2017-11-10T07:28:10.753Z,1013.14
2017-11-10T07:29:10.612Z,1013.04
2017-11-10T07:30:10.783Z,1013.08
2017-11-10T07:31:11.431Z,1013.05
2017-11-10T07:32:10.644Z,1013.01
2017-11-10T07:33:10.938Z,1013.07
2017-11-10T07:34:09.794Z,1013.02
2017-11-10T07:35:10.479Z,1013.00
2017-11-10T07:36:11.504Z,1012.98
2017-11-10T07:37:11.496Z,1012.98
2017-11-10T07:38:11.132Z,1013.01
2017-11-10T07:39:10.194Z,1012.94
2017-11-10T07:40:10.851Z,1012.91
2017-11-10T07:41:10.456Z,1012.88
2017-11-10T07:42:10.261Z,1012.91
2017-11-10T07:43:11.215Z,1012.93
2017-11-10T07:44:10.777Z,1012.98
2017-11-10T07:45:11.319Z,1012.95
2017-11-10T07:46:10.846Z,1012.93
2017-11-10T07:47:11.207Z,1012.90
2017-11-10T07:48:11.011Z,1012.91
2017-11-10T07:49:10.565Z,1012.85
2017-11-10T07:50:09.928Z,1012.75
2017-11-10T07:51:10.587Z,1012.82
2017-11-10T07:52:11.049Z,1012.76
2017-11-10T07:53:10.458Z,1012.82
2017-11-10T07:54:10.861Z,1012.81
2017-11-10T07:55:10.623Z,1012.81
2017-11-10T07:56:10.703Z,1012.83
2017-11-10T07:57:11.053Z,1012.84
2017-11-10T07:58:10.883Z,1012.80
2017-11-10T07:59:10.084Z,1012.83
2017-11-10T08:00:10.875Z,1012.77
2017-11-10T08:01:09.974Z,1012.79
2017-11-10T08:02:09.952Z,1012.77
2017-11-10T08:03:11.268Z,1012.81
2017-11-10T08:04:10.947Z,1012.77
2017-11-10T08:05:10.511Z,1012.76
2017-11-10T08:06:11.110Z,1012.76
2017-11-10T08:07:10.692Z,1012.76
2017-11-10T08:08:10.253Z,1012.78
2017-11-10T08:09:10.971Z,1012.77
2017-11-10T08:10:10.736Z,1012.76
2017-11-10T08:11:10.874Z,1012.76
2017-11-10T08:12:10.410Z,1012.71
2017-11-10T08:13:11.103Z,1012.70
2017-11-10T08:14:10.978Z,1012.74
2017-11-10T08:15:10.437Z,1012.67
2017-11-10T08:16:11.118Z,1012.68
2017-11-10T08:17:10.298Z,1012.68
2017-11-10T08:18:10.541Z,1012.69
2017-11-10T08:19:11.476Z,1012.71
2017-11-10T08:20:11.265Z,1012.75
2017-11-10T08:21:10.413Z,1012.81
2017-11-10T08:22:10.348Z,1012.85
2017-11-10T08:23:10.903Z,1012.83
2017-11-10T08:24:10.551Z,1012.69
2017-11-10T08:25:11.553Z,1012.73
2017-11-10T08:26:10.522Z,1012.74
2017-11-10T08:27:11.104Z,1012.66
2017-11-10T08:28:10.685Z,1012.67
2017-11-10T08:29:10.621Z,1012.66
2017-11-10T08:30:11.234Z,1012.70
2017-11-10T08:31:10.879Z,1012.64
2017-11-10T08:32:10.076Z,1012.67
2017-11-10T08:33:10.683Z,1012.60
2017-11-10T08:34:10.686Z,1012.65
2017-11-10T08:35:11.369Z,1012.63
2017-11-10T08:36:11.123Z,1012.53
2017-11-10T08:37:10.953Z,1012.56
2017-11-10T08:38:10.141Z,1012.56
2017-11-10T08:39:10.505Z,1012.54
2017-11-10T08:40:10.980Z,1012.54
2017-11-10T08:41:10.400Z,1012.55
2017-11-10T08:42:10.809Z,1012.48
2017-11-10T08:43:11.317Z,1012.49
2017-11-10T08:44:10.454Z,1012.50
2017-11-10T08:45:10.919Z,1012.56
2017-11-10T08:46:10.295Z,1012.52
2017-11-10T08:47:11.183Z,1012.50
2017-11-10T08:48:10.815Z,1012.49
2017-11-10T08:49:11.455Z,1012.50
2017-11-10T08:50:11.094Z,1012.50
2017-11-10T08:51:10.872Z,1012.53
2017-11-10T08:52:10.922Z,1012.52
2017-11-10T08:53:10.134Z,1012.43
2017-11-10T08:54:10.862Z,1012.49
2017-11-10T08:55:10.980Z,1012.42
2017-11-10T08:56:10.623Z,1012.45
2017-11-10T08:57:10.748Z,1012.38
2017-11-10T08:58:10.884Z,1012.38
2017-11-10T08:59:10.544Z,1012.37
2017-11-10T09:00:10.568Z,1012.35
2017-11-10T09:01:11.314Z,1012.38
2017-11-10T09:02:10.772Z,1012.29
2017-11-10T09:03:10.919Z,1012.25
2017-11-10T09:04:10.469Z,1012.32
2017-11-10T09:05:10.874Z,1012.25
2017-11-10T09:06:09.859Z,1012.27
2017-11-10T09:07:10.362Z,1012.23
2017-11-10T09:08:10.347Z,1012.27
2017-11-10T09:09:10.870Z,1012.28
2017-11-10T09:10:09.878Z,1012.21
2017-11-10T09:11:10.314Z,1012.22
2017-11-10T09:12:11.239Z,1012.16
2017-11-10T09:13:10.262Z,1012.12
2017-11-10T09:14:10.128Z,1012.16
2017-11-10T09:15:10.371Z,1012.15
2017-11-10T09:16:10.347Z,1012.13
2017-11-10T09:17:10.377Z,1012.15
2017-11-10T09:18:10.761Z,1012.12
2017-11-10T09:19:11.526Z,1012.09
2017-11-10T09:20:11.806Z,1012.09
2017-11-10T09:21:09.806Z,1011.98
2017-11-10T09:22:10.678Z,1012.02
2017-11-10T09:23:11.246Z,1011.93
2017-11-10T09:24:10.225Z,1011.94
2017-11-10T09:25:10.684Z,1011.88
2017-11-10T09:26:10.766Z,1011.95
2017-11-10T09:27:11.085Z,1011.83
2017-11-10T09:28:10.874Z,1011.80
2017-11-10T09:29:11.134Z,1011.73
2017-11-10T09:30:10.671Z,1011.87
2017-11-10T09:31:10.102Z,1011.76
2017-11-10T09:32:10.855Z,1011.73
2017-11-10T09:33:11.399Z,1011.67
2017-11-10T09:34:11.288Z,1011.59
2017-11-10T09:35:10.780Z,1011.63
2017-11-10T09:36:11.053Z,1011.71
2017-11-10T09:37:11.425Z,1011.65
2017-11-10T09:38:11.163Z,1011.63
2017-11-10T09:39:11.113Z,1011.62
2017-11-10T09:40:11.158Z,1011.64
2017-11-10T09:41:10.760Z,1011.68
2017-11-10T09:42:11.016Z,1011.66
2017-11-10T09:43:10.494Z,1011.66
2017-11-10T09:44:11.474Z,1011.64
2017-11-10T09:45:10.541Z,1011.68
2017-11-10T09:46:10.632Z,1011.78
2017-11-10T09:47:11.071Z,1011.73
2017-11-10T09:48:10.655Z,1011.77
2017-11-10T09:49:11.634Z,1011.74
2017-11-10T09:50:11.584Z,1011.70
2017-11-10T09:51:10.766Z,1011.69
2017-11-10T09:52:11.641Z,1011.65
2017-11-10T09:53:10.950Z,1011.57
2017-11-10T09:54:10.100Z,1011.69
2017-11-10T09:55:11.801Z,1011.62
2017-11-10T09:56:10.915Z,1011.63
2017-11-10T09:57:10.490Z,1011.66
2017-11-10T09:58:11.274Z,1011.61
2017-11-10T09:59:10.049Z,1011.63
2017-11-10T10:00:11.278Z,1011.62
2017-11-10T10:01:11.078Z,1011.58
2017-11-10T10:02:10.589Z,1011.57
2017-11-10T10:03:11.752Z,1011.61
2017-11-10T10:04:10.390Z,1011.51
2017-11-10T10:05:10.643Z,1011.50
2017-11-10T10:06:11.305Z,1011.58
2017-11-10T10:07:10.465Z,1011.54
2017-11-10T10:08:10.696Z,1011.57
2017-11-10T10:09:11.007Z,1011.48
2017-11-10T10:10:10.937Z,1011.50
2017-11-10T10:11:10.228Z,1011.44
2017-11-10T10:12:11.250Z,1011.43
2017-11-10T10:13:11.685Z,1011.45
2017-11-10T10:14:10.851Z,1011.41
2017-11-10T10:15:10.631Z,1011.39
2017-11-10T10:16:10.888Z,1011.36
2017-11-10T10:17:10.568Z,1011.35
2017-11-10T10:18:11.615Z,1011.31
2017-11-10T10:19:10.733Z,1011.23
2017-11-10T10:20:10.584Z,1011.27
2017-11-10T10:21:11.208Z,1011.29
2017-11-10T10:22:10.774Z,1011.29
2017-11-10T10:23:11.331Z,1011.23
2017-11-10T10:24:11.554Z,1011.17
2017-11-10T10:25:11.205Z,1011.11
2017-11-10T10:26:10.669Z,1011.09
2017-11-10T10:27:09.900Z,1011.05
2017-11-10T10:28:11.246Z,1010.97
2017-11-10T10:29:11.781Z,1011.06
2017-11-10T10:30:10.530Z,1010.98
2017-11-10T10:31:11.199Z,1010.95
2017-11-10T10:32:10.438Z,1010.93
2017-11-10T10:33:10.910Z,1010.88
2017-11-10T10:34:10.574Z,1010.86
2017-11-10T10:35:11.471Z,1010.88
2017-11-10T10:36:10.704Z,1010.84
2017-11-10T10:37:10.869Z,1010.83
2017-11-10T10:38:10.380Z,1010.84
2017-11-10T10:39:11.134Z,1010.76
2017-11-10T10:40:10.420Z,1010.75
2017-11-10T10:41:10.880Z,1010.67
2017-11-10T10:42:09.994Z,1010.63
2017-11-10T10:43:10.316Z,1010.66
2017-11-10T10:44:11.139Z,1010.58
2017-11-10T10:45:10.400Z,1010.54
2017-11-10T10:46:11.268Z,1010.53
2017-11-10T10:47:10.392Z,1010.55
2017-11-10T10:48:11.241Z,1010.53
2017-11-10T10:49:10.803Z,1010.50
2017-11-10T10:50:11.284Z,1010.52
2017-11-10T10:51:11.109Z,1010.54
2017-11-10T10:52:10.547Z,1010.47
2017-11-10T10:53:10.925Z,1010.44
2017-11-10T10:54:09.979Z,1010.38
2017-11-10T10:55:10.335Z,1010.36
2017-11-10T10:56:11.407Z,1010.33
2017-11-10T10:57:10.956Z,1010.33
2017-11-10T10:58:11.108Z,1010.32
2017-11-10T10:59:10.788Z,1010.25
2017-11-10T11:00:11.362Z,1010.23
2017-11-10T11:01:10.931Z,1010.22
2017-11-10T11:02:10.624Z,1010.17
2017-11-10T11:03:11.215Z,1010.14
2017-11-10T11:04:10.613Z,1010.18
2017-11-10T11:05:11.113Z,1010.14
2017-11-10T11:06:10.900Z,1010.11
2017-11-10T11:07:11.631Z,1010.08
2017-11-10T11:08:10.013Z,1010.15
2017-11-10T11:09:10.210Z,1010.04
2017-11-10T11:10:10.604Z,1010.05
2017-11-10T11:11:11.263Z,1010.10
2017-11-10T11:12:11.493Z,1010.07
2017-11-10T11:13:10.818Z,1010.09
2017-11-10T11:14:11.395Z,1010.03
2017-11-10T11:15:11.005Z,1009.98
2017-11-10T11:16:10.628Z,1009.99
2017-11-10T11:17:12.018Z,1009.93
2017-11-10T11:18:10.342Z,1009.94
2017-11-10T11:19:09.981Z,1009.93
2017-11-10T11:20:10.532Z,1009.91
2017-11-10T11:21:10.885Z,1009.86
2017-11-10T11:22:10.299Z,1009.83
2017-11-10T11:23:11.155Z,1009.78
2017-11-10T11:24:10.397Z,1009.70
2017-11-10T11:25:11.185Z,1009.74
2017-11-10T11:26:10.770Z,1009.71
2017-11-10T11:27:11.112Z,1009.68
2017-11-10T11:28:11.131Z,1009.65
2017-11-10T11:29:10.684Z,1009.66
2017-11-10T11:30:11.967Z,1009.63
2017-11-10T11:31:10.643Z,1009.62
2017-11-10T11:32:10.935Z,1009.59
2017-11-10T11:33:10.449Z,1009.62
2017-11-10T11:34:10.981Z,1009.61
2017-11-10T11:35:11.132Z,1009.49
2017-11-10T11:36:10.317Z,1009.57
2017-11-10T11:37:10.907Z,1009.52
2017-11-10T11:38:10.806Z,1009.51
2017-11-10T11:39:11.115Z,1009.38
2017-11-10T11:40:10.688Z,1009.48
2017-11-10T11:41:11.030Z,1009.43
2017-11-10T11:42:10.283Z,1009.45
2017-11-10T11:43:10.904Z,1009.48
2017-11-10T11:44:10.131Z,1009.43
2017-11-10T11:45:12.704Z,1009.38
2017-11-10T11:46:10.855Z,1009.34
2017-11-10T11:47:10.437Z,1009.40
2017-11-10T11:48:11.123Z,1009.32
2017-11-10T11:49:10.784Z,1009.34
2017-11-10T11:50:11.286Z,1009.24
2017-11-10T11:51:10.840Z,1009.29
2017-11-10T11:52:14.194Z,1009.26
2017-11-10T11:53:10.974Z,1009.25
2017-11-10T11:54:10.500Z,1009.21
2017-11-10T11:55:10.796Z,1009.25
2017-11-10T11:56:11.244Z,1009.15
2017-11-10T11:57:11.056Z,1009.19
2017-11-10T11:58:10.352Z,1009.21
2017-11-10T11:59:11.841Z,1009.19
2017-11-10T12:00:10.191Z,1009.10
2017-11-10T12:01:10.869Z,1009.12
2017-11-10T12:02:09.898Z,1009.14
2017-11-10T12:03:10.671Z,1009.11
2017-11-10T12:04:11.281Z,1009.13
2017-11-10T12:05:11.302Z,1009.11